createdAt,value
2022-08-09T00:00:05.907Z,82.68
2022-08-09T00:06:12.068Z,83.05
2022-08-09T00:10:01.299Z,82.95
2022-08-09T00:15:06.510Z,83.16
2022-08-09T00:20:01.221Z,83.34
2022-08-09T00:25:08.366Z,84.18
2022-08-09T00:30:21.416Z,85.06
2022-08-09T00:35:01.525Z,84.52
2022-08-09T00:40:13.159Z,84.97
2022-08-09T00:45:03.798Z,84.96
2022-08-09T00:50:02.244Z,85.32
2022-08-09T00:55:01.822Z,85.45
2022-08-09T01:00:03.012Z,85.8
2022-08-09T01:05:02.546Z,86.26
2022-08-09T01:10:02.090Z,86.44
2022-08-09T01:15:06.018Z,86.6
2022-08-09T01:20:03.194Z,87.59
2022-08-09T01:25:01.390Z,87.92
2022-08-09T01:30:01.760Z,88.46
2022-08-09T01:35:06.970Z,88.27
2022-08-09T01:40:01.904Z,89.04
2022-08-09T01:45:01.480Z,89.42
2022-08-09T01:50:01.838Z,89.75
2022-08-09T01:55:01.835Z,89.65
2022-08-09T02:00:19.435Z,90.11
2022-08-09T02:05:05.203Z,90.56
2022-08-09T02:10:04.158Z,90.55
2022-08-09T02:15:01.665Z,90.78
2022-08-09T02:20:01.434Z,90.9
2022-08-09T02:25:01.651Z,91.52
2022-08-09T02:30:02.083Z,91.87
2022-08-09T02:35:01.452Z,91.76
2022-08-09T02:40:02.991Z,91.95
2022-08-09T02:45:01.861Z,92.4
2022-08-09T02:50:02.196Z,92.6
2022-08-09T02:55:03.229Z,92.83
2022-08-09T03:00:21.116Z,92.91
2022-08-09T03:05:02.008Z,93.15
2022-08-09T03:10:01.917Z,93.5
2022-08-09T03:15:01.181Z,93.61
2022-08-09T03:20:05.084Z,93.73
2022-08-09T03:25:05.843Z,94.15
2022-08-09T03:30:01.582Z,94.34
2022-08-09T03:35:01.181Z,94.38
2022-08-09T03:40:01.447Z,94.57
2022-08-09T03:45:01.597Z,95.05
2022-08-09T03:50:01.228Z,95.57
2022-08-09T03:55:01.707Z,95.54
2022-08-09T04:00:01.500Z,95.59
2022-08-09T04:05:05.886Z,95.59
2022-08-09T04:10:01.575Z,95.55
2022-08-09T04:15:17.219Z,95.72
2022-08-09T04:20:02.713Z,95.89
2022-08-09T04:25:01.574Z,95.98
2022-08-09T04:30:01.190Z,95.96
2022-08-09T04:35:01.812Z,96.25
2022-08-09T04:40:02.210Z,95.95
2022-08-09T04:45:01.152Z,96.13
2022-08-09T04:50:01.305Z,96.37
2022-08-09T04:55:04.024Z,96.46
2022-08-09T05:00:01.638Z,96.61
2022-08-09T05:05:09.819Z,95.85
2022-08-09T05:10:02.260Z,95.75
2022-08-09T05:15:03.612Z,95.78
2022-08-09T05:20:01.314Z,95.92
2022-08-09T05:25:02.683Z,95.65
2022-08-09T05:30:02.209Z,95.58
2022-08-09T05:35:01.595Z,95.07
2022-08-09T05:40:01.931Z,94.99
2022-08-09T05:45:01.931Z,94.55
2022-08-09T05:50:25.732Z,93.6
2022-08-09T05:55:03.305Z,92.96
2022-08-09T06:00:01.950Z,92.28
2022-08-09T06:05:01.241Z,90.88
2022-08-09T06:10:02.985Z,89.12
2022-08-09T06:15:03.253Z,86.33
2022-08-09T06:20:01.846Z,83.68
2022-08-09T06:25:01.888Z,81.48
2022-08-09T06:30:08.841Z,80.55
2022-08-09T06:35:01.753Z,78.53
2022-08-09T06:40:06.820Z,77.01
2022-08-09T06:45:20.466Z,75.5
2022-08-09T06:50:14.097Z,74.64
2022-08-09T06:55:06.630Z,73.05
2022-08-09T07:00:54.635Z,72.98
2022-08-09T07:05:01.400Z,71.46
2022-08-09T07:10:14.141Z,69.83
2022-08-09T07:15:03.466Z,70.7
2022-08-09T07:20:01.735Z,71.34
2022-08-09T07:25:01.713Z,70.05
2022-08-09T07:30:01.389Z,68.05
2022-08-09T07:35:02.650Z,69.2
2022-08-09T07:40:01.515Z,68.18
2022-08-09T07:45:06.310Z,64.49
2022-08-09T07:50:07.860Z,67.69
2022-08-09T07:55:01.518Z,64.66
2022-08-09T08:00:03.789Z,63.32
2022-08-09T08:05:01.806Z,63.21
2022-08-09T08:10:08.127Z,64.24
2022-08-09T08:15:01.892Z,63.19
2022-08-09T08:20:02.156Z,62
2022-08-09T08:25:01.796Z,61.42
2022-08-09T08:30:03.737Z,60.89
2022-08-09T08:35:01.998Z,60.1
2022-08-09T08:40:01.526Z,59.5
2022-08-09T08:45:13.305Z,59.66
2022-08-09T08:50:02.782Z,58.36
2022-08-09T08:55:01.427Z,58.85
2022-08-09T09:00:02.017Z,57.62
2022-08-09T09:05:05.945Z,59.14
2022-08-09T09:10:05.106Z,59.65
2022-08-09T09:15:02.061Z,58.81
2022-08-09T09:20:01.417Z,57.78
2022-08-09T09:26:02.013Z,54.36
2022-08-09T09:30:13.991Z,55.82
2022-08-09T09:35:01.205Z,57.03
2022-08-09T09:40:01.302Z,55.66
2022-08-09T09:45:01.167Z,55.29
2022-08-09T09:50:13.599Z,57.09
2022-08-09T09:55:01.383Z,56.76
2022-08-09T10:00:01.282Z,53.76
2022-08-09T10:05:01.564Z,54.48
2022-08-09T10:10:03.205Z,55.56
2022-08-09T10:15:01.696Z,53.55
2022-08-09T10:20:01.589Z,52.54
2022-08-09T10:25:10.784Z,52.13
2022-08-09T10:30:41.883Z,53.45
2022-08-09T10:35:02.065Z,51.93
2022-08-09T10:40:01.493Z,49.42
2022-08-09T10:45:01.442Z,50.46
2022-08-09T10:50:01.890Z,51.98
2022-08-09T10:55:01.912Z,50.05
2022-08-09T11:00:02.086Z,49.06
2022-08-09T11:05:01.723Z,48.58
2022-08-09T11:10:01.369Z,49.58
2022-08-09T11:15:01.720Z,49.84
2022-08-09T11:20:11.726Z,48.2
2022-08-09T11:25:01.326Z,49.98
2022-08-09T11:30:05.647Z,46.5
2022-08-09T11:35:01.352Z,47.32
2022-08-09T11:40:01.658Z,48.87
2022-08-09T11:45:01.552Z,47.53
2022-08-09T11:50:55.474Z,45.79
2022-08-09T11:55:01.321Z,47.07
2022-08-09T12:00:01.935Z,45.02
2022-08-09T12:05:02.174Z,46.07
2022-08-09T12:10:02.230Z,45.63
2022-08-09T12:15:07.552Z,47.3
2022-08-09T12:20:01.216Z,45.54
2022-08-09T12:25:01.386Z,46.58
2022-08-09T12:30:35.457Z,44.57
2022-08-09T12:35:03.143Z,44.77
2022-08-09T12:40:02.123Z,42.86
2022-08-09T12:45:01.371Z,43.36
2022-08-09T12:50:01.918Z,42.25
2022-08-09T12:56:15.950Z,41.83
2022-08-09T13:00:03.299Z,43.34
2022-08-09T13:05:02.683Z,43.58
2022-08-09T13:10:01.955Z,43.43
2022-08-09T13:15:01.815Z,42.65
2022-08-09T13:20:11.303Z,41.66
2022-08-09T13:25:03.673Z,41.39
2022-08-09T13:30:03.046Z,41.83
2022-08-09T13:35:01.615Z,42.69
2022-08-09T13:41:55.681Z,42.51
2022-08-09T13:45:01.379Z,41.19
2022-08-09T13:50:01.998Z,43.05
2022-08-09T13:55:05.145Z,45.75
2022-08-09T14:00:02.087Z,46.68
2022-08-09T14:05:01.373Z,46.08
2022-08-09T14:10:03.284Z,45.82
2022-08-09T14:15:01.830Z,44.92
2022-08-09T14:20:01.946Z,44.39
2022-08-09T14:25:02.096Z,45.12
2022-08-09T14:30:34.289Z,44.53
2022-08-09T14:35:01.365Z,45.72
2022-08-09T14:40:01.733Z,45.37
2022-08-09T14:47:00.749Z,45.57
2022-08-09T14:50:02.622Z,44.4
2022-08-09T14:55:01.381Z,46.62
2022-08-09T15:00:01.363Z,43.98
2022-08-09T15:05:01.593Z,43.57
2022-08-09T15:10:10.339Z,44.08
2022-08-09T15:15:01.175Z,44.08
2022-08-09T15:20:02.651Z,45.29
2022-08-09T15:25:03.706Z,44.34
2022-08-09T15:30:56.500Z,43.97
2022-08-09T15:35:01.818Z,43.96
2022-08-09T15:40:02.047Z,43.24
2022-08-09T15:45:01.450Z,43.49
2022-08-09T15:50:04.831Z,42.81
2022-08-09T15:55:01.779Z,43.83
2022-08-09T16:00:01.415Z,46.04
2022-08-09T16:05:02.519Z,44.5
2022-08-09T16:10:04.685Z,43.66
2022-08-09T16:15:01.248Z,44.56
2022-08-09T16:20:04.790Z,45.49
2022-08-09T16:25:01.728Z,44.95
2022-08-09T16:30:02.585Z,44.96
2022-08-09T16:35:02.566Z,44.94
2022-08-09T16:40:04.991Z,45.39
2022-08-09T16:45:01.938Z,45.6
2022-08-09T16:50:30.074Z,44.99
2022-08-09T16:55:02.082Z,46.1
2022-08-09T17:00:01.419Z,46.14
2022-08-09T17:05:01.565Z,45.97
2022-08-09T17:10:04.031Z,46.02
2022-08-09T17:15:01.295Z,46.91
2022-08-09T17:20:32.842Z,47.07
2022-08-09T17:25:02.781Z,46.96
2022-08-09T17:30:06.555Z,47.42
2022-08-09T17:35:11.760Z,47.3
2022-08-09T17:40:01.579Z,47.14
2022-08-09T17:45:01.820Z,47.69
2022-08-09T17:50:14.038Z,48.15
2022-08-09T17:55:01.224Z,47.97
2022-08-09T18:00:05.504Z,48.51
2022-08-09T18:05:01.709Z,48.69
2022-08-09T18:10:04.555Z,49.04
2022-08-09T18:15:01.207Z,49.48
2022-08-09T18:20:59.183Z,49.48
2022-08-09T18:25:01.977Z,49.67
2022-08-09T18:30:39.958Z,50.42
2022-08-09T18:35:01.461Z,50.33
2022-08-09T18:40:01.742Z,50.49
2022-08-09T18:45:01.693Z,50.74
2022-08-09T18:50:03.320Z,51.08
2022-08-09T18:55:01.744Z,52.09
2022-08-09T19:00:03.867Z,52.17
2022-08-09T19:05:14.024Z,52.12
2022-08-09T19:10:14.459Z,52.93
2022-08-09T19:15:01.192Z,52.86
2022-08-09T19:20:02.151Z,52.57
2022-08-09T19:25:09.779Z,53.02
2022-08-09T19:30:24.905Z,53.47
2022-08-09T19:35:02.263Z,54.02
2022-08-09T19:40:03.706Z,54.73
2022-08-09T19:45:01.568Z,54.53
2022-08-09T19:50:07.437Z,55.53
2022-08-09T19:55:01.324Z,56.06
2022-08-09T20:00:07.299Z,58.08
2022-08-09T20:05:02.020Z,57.43
2022-08-09T20:10:06.762Z,59.45
2022-08-09T20:15:04.467Z,59.3
2022-08-09T20:20:01.830Z,60.75
2022-08-09T20:25:01.664Z,61.53
2022-08-09T20:30:01.294Z,60.92
2022-08-09T20:35:02.133Z,62.29
2022-08-09T20:40:15.151Z,63.23
2022-08-09T20:45:57.033Z,63.56
2022-08-09T20:50:02.085Z,65.03
2022-08-09T20:55:01.369Z,64.8
2022-08-09T21:00:22.258Z,65.41
2022-08-09T21:05:51.714Z,64.15
2022-08-09T21:10:01.667Z,63.79
2022-08-09T21:15:01.253Z,64.36
2022-08-09T21:20:19.213Z,63.4
2022-08-09T21:25:01.300Z,63.63
2022-08-09T21:30:01.251Z,63.46
2022-08-09T21:35:02.178Z,64.57
2022-08-09T21:40:01.940Z,65.94
2022-08-09T21:45:01.983Z,63.51
2022-08-09T21:50:01.833Z,62.81
2022-08-09T21:55:04.273Z,61.71
2022-08-09T22:00:01.305Z,62.38
2022-08-09T22:05:08.911Z,62.63
2022-08-09T22:10:01.619Z,62.69
2022-08-09T22:15:02.210Z,61.9
2022-08-09T22:20:01.996Z,63.44
2022-08-09T22:26:05.973Z,62.55
2022-08-09T22:30:01.979Z,65.55
2022-08-09T22:35:06.786Z,67.4
2022-08-09T22:40:02.180Z,67.66
2022-08-09T22:48:14.262Z,68.14
2022-08-09T22:50:02.115Z,69.66
2022-08-09T22:55:02.129Z,70.92
2022-08-09T23:00:01.550Z,69.64
2022-08-09T23:05:01.760Z,70.85
2022-08-09T23:10:01.607Z,70.99
2022-08-09T23:15:01.567Z,70.99
2022-08-09T23:40:03.225Z,74.96
2022-08-09T23:45:02.541Z,74.13
2022-08-09T23:50:03.492Z,73.68
2022-08-09T23:55:02.218Z,73.66
